Etusivu
METAR-TAF:

METAR-TAF

Lentoasemat :

Seinäjoen lentoasema

Seinäjoki-Ilmajoki, Suomi

Leveyspiiri: 62-41-37N, Pituuspiiri: 022-49-55E, korkeus merenpinnasta: 91 m

Tämänhetkinen sää

Tämä raportti tehtiin 19 minuuttia sitten, kello 00.20 UTC
Tuuli 7 kn etelästä, vaihdellen kaakon ja lounaan välillä
Lämpötila 13°C
Kosteus 77%
Ilmanpaine 1004 hPa
Näkyvyys 10 km tai enemmän
ei pilviä alle 1500 m:ssä eikä cumulonimbus-pilviä

METAR: EFSI 190020Z AUTO 18007KT 140V220 CAVOK 13/09 Q1004

Aika: 03:39 (00:39 UTC)


TAF: puuttuu

Säähavainnot ja -ennusteet yli 4000 lentoasemalta (METAR- ja TAF-raportit).

Käytössä olevat sääasemat on merkitty karttaan keltaisilla ja punaisilla pisteillä.

Aseta hiiri pisteen päälle nähdäksesi sääaseman nimen.

Klikkaa sitten nähdäksesi säähavainnot ja -ennusteet.

Kartan vaihtaminen: klikkaa mustalla rastilla varustettuja vihreitä pisteitä, niin voit zoomata sisään; viivalla varustettua vihreää pistettä, niin voit zoomata ulos tai vihreitä nuolia, niin pääset viereisille kartoille.


METAR-TAF: